createdAt,value
2018-06-30T00:02:20.492Z,9.45
2018-06-30T00:05:09.814Z,6.47
2018-06-30T00:07:42.829Z,7.42
2018-06-30T00:10:16.640Z,5.80
2018-06-30T00:12:48.279Z,6.87
2018-06-30T00:15:21.420Z,4.28
2018-06-30T00:17:55.615Z,5.45
2018-06-30T00:20:25.859Z,5.75
2018-06-30T00:23:00.258Z,4.80
2018-06-30T00:25:31.728Z,4.83
2018-06-30T00:28:14.477Z,5.47
2018-06-30T00:30:53.657Z,6.80
2018-06-30T00:33:25.117Z,6.67
2018-06-30T00:35:57.044Z,4.42
2018-06-30T00:38:30.678Z,4.70
2018-06-30T00:41:01.774Z,4.67
2018-06-30T00:43:32.837Z,3.87
2018-06-30T00:46:03.557Z,6.37
2018-06-30T00:48:34.699Z,4.95
2018-06-30T00:51:06.501Z,6.28
2018-06-30T00:53:38.312Z,4.90
2018-06-30T00:56:11.104Z,6.30
2018-06-30T00:58:42.997Z,5.50
2018-06-30T01:01:14.108Z,4.75
2018-06-30T01:03:55.756Z,5.65
2018-06-30T01:06:43.144Z,4.95
2018-06-30T01:09:16.675Z,5.58
2018-06-30T01:11:47.233Z,7.03
2018-06-30T01:14:17.945Z,5.62
2018-06-30T01:16:49.024Z,6.08
2018-06-30T01:19:22.305Z,6.28
2018-06-30T01:21:58.052Z,4.70
2018-06-30T01:24:28.695Z,5.17
2018-06-30T01:26:59.594Z,5.35
2018-06-30T01:29:30.371Z,6.12
2018-06-30T01:32:01.402Z,6.37
2018-06-30T01:34:32.742Z,7.05
2018-06-30T01:37:04.653Z,7.12
2018-06-30T01:39:37.520Z,4.90
2018-06-30T01:42:10.061Z,5.65
2018-06-30T01:44:42.859Z,4.17
2018-06-30T01:47:13.774Z,5.53
2018-06-30T01:49:46.902Z,6.35
2018-06-30T01:52:17.482Z,4.37
2018-06-30T01:54:50.234Z,4.95
2018-06-30T01:57:21.537Z,4.42
2018-06-30T01:59:52.146Z,5.60
2018-06-30T02:02:23.978Z,7.40
2018-06-30T02:04:55.547Z,5.22
2018-06-30T02:07:30.108Z,6.58
2018-06-30T02:10:02.152Z,4.58
2018-06-30T02:12:33.527Z,4.47
2018-06-30T02:15:04.465Z,6.55
2018-06-30T02:17:36.090Z,5.00
2018-06-30T02:20:08.664Z,4.70
2018-06-30T02:22:39.516Z,5.22
2018-06-30T02:25:10.215Z,6.08
2018-06-30T02:27:42.446Z,4.00
2018-06-30T02:30:12.512Z,5.25
2018-06-30T02:32:43.770Z,5.35
2018-06-30T02:35:16.479Z,5.10
2018-06-30T02:37:50.708Z,6.58
2018-06-30T02:40:21.812Z,6.25
2018-06-30T02:42:52.576Z,5.28
2018-06-30T02:45:24.707Z,6.47
2018-06-30T02:47:56.499Z,6.22
2018-06-30T02:50:27.147Z,6.55
2018-06-30T02:52:58.877Z,5.58
2018-06-30T02:55:34.307Z,5.75
2018-06-30T02:58:05.166Z,5.95
2018-06-30T03:00:35.522Z,5.92
2018-06-30T03:03:06.068Z,4.25
2018-06-30T03:05:36.509Z,5.15
2018-06-30T03:08:07.841Z,4.97
2018-06-30T03:10:41.187Z,6.47
2018-06-30T03:13:12.976Z,6.83
2018-06-30T03:15:44.245Z,4.35
2018-06-30T03:18:15.019Z,6.28
2018-06-30T03:20:48.619Z,3.83
2018-06-30T03:23:19.366Z,7.75
2018-06-30T03:25:52.051Z,3.75
2018-06-30T03:28:24.834Z,6.05
2018-06-30T03:30:55.798Z,6.70
2018-06-30T03:33:27.434Z,4.17
2018-06-30T03:35:59.249Z,4.47
2018-06-30T03:38:29.996Z,4.22
2018-06-30T03:41:03.066Z,4.90
2018-06-30T03:43:33.836Z,7.00
2018-06-30T03:46:05.852Z,3.95
2018-06-30T03:48:37.358Z,3.65
2018-06-30T03:51:08.515Z,4.28
2018-06-30T03:53:38.973Z,3.92
2018-06-30T03:56:17.526Z,4.30
2018-06-30T03:58:53.053Z,3.35
2018-06-30T04:01:25.724Z,3.50
2018-06-30T04:04:01.869Z,4.17
2018-06-30T04:06:33.724Z,3.45
2018-06-30T04:09:04.060Z,3.55
2018-06-30T04:11:37.229Z,5.92
2018-06-30T04:14:09.487Z,5.90
2018-06-30T04:16:43.704Z,4.10
2018-06-30T04:19:18.011Z,4.67
2018-06-30T04:21:48.923Z,3.55
2018-06-30T04:24:22.717Z,4.97
2018-06-30T04:26:53.851Z,3.10
2018-06-30T04:29:25.988Z,4.70
2018-06-30T04:31:57.522Z,3.15
2018-06-30T04:34:27.958Z,4.72
2018-06-30T04:36:58.231Z,8.38
2018-06-30T04:39:31.618Z,4.22
2018-06-30T04:42:02.848Z,3.67
2018-06-30T04:44:33.354Z,4.33
2018-06-30T04:47:13.071Z,5.37
2018-06-30T04:49:44.029Z,4.55
2018-06-30T04:52:14.285Z,5.35
2018-06-30T04:54:45.713Z,5.10
2018-06-30T04:57:16.743Z,3.12
2018-06-30T04:59:47.447Z,6.25
2018-06-30T05:02:17.814Z,3.87
2018-06-30T05:04:48.615Z,4.70
2018-06-30T05:07:19.286Z,5.25
2018-06-30T05:09:53.546Z,3.65
2018-06-30T05:12:24.735Z,3.70
2018-06-30T05:14:59.318Z,5.92
2018-06-30T05:17:30.376Z,4.37
2018-06-30T05:20:00.893Z,5.37
2018-06-30T05:22:35.415Z,3.60
2018-06-30T05:25:07.519Z,3.83
2018-06-30T05:27:38.529Z,4.35
2018-06-30T05:30:09.002Z,4.05
2018-06-30T05:32:40.210Z,5.92
2018-06-30T05:35:10.786Z,3.65
2018-06-30T05:37:41.070Z,4.92
2018-06-30T05:40:12.487Z,4.67
2018-06-30T05:42:43.824Z,4.85
2018-06-30T05:45:15.113Z,3.83
2018-06-30T05:47:45.250Z,3.62
2018-06-30T05:50:15.836Z,3.83
2018-06-30T05:52:46.906Z,3.17
2018-06-30T05:55:17.781Z,3.20
2018-06-30T05:57:48.526Z,4.72
2018-06-30T06:00:19.156Z,5.53
2018-06-30T06:02:49.543Z,4.42
2018-06-30T06:05:20.160Z,4.67
2018-06-30T06:07:50.991Z,4.58
2018-06-30T06:10:23.077Z,3.80
2018-06-30T06:13:03.654Z,4.20
2018-06-30T06:16:01.411Z,4.83
2018-06-30T06:18:32.360Z,6.15
2018-06-30T06:21:05.473Z,4.72
2018-06-30T06:23:37.428Z,4.17
2018-06-30T06:26:08.006Z,4.20
2018-06-30T06:28:44.999Z,3.95
2018-06-30T06:31:19.090Z,4.60
2018-06-30T06:33:58.754Z,3.10
2018-06-30T06:36:35.422Z,3.95
2018-06-30T06:39:07.320Z,3.83
2018-06-30T06:41:39.813Z,4.85
2018-06-30T06:44:38.720Z,3.75
2018-06-30T06:47:27.433Z,4.78
2018-06-30T06:50:03.410Z,5.30
2018-06-30T06:52:35.081Z,4.15
2018-06-30T06:55:06.910Z,4.40
2018-06-30T06:57:41.764Z,3.27
2018-06-30T07:00:26.109Z,3.52
2018-06-30T07:03:08.710Z,3.15
2018-06-30T07:05:42.275Z,2.85
2018-06-30T07:08:14.007Z,3.42
2018-06-30T07:10:46.324Z,2.47
2018-06-30T07:13:17.123Z,2.45
2018-06-30T07:15:50.424Z,3.27
2018-06-30T07:18:21.750Z,3.92
2018-06-30T07:20:51.936Z,4.20
2018-06-30T07:23:29.686Z,1.98
2018-06-30T07:26:01.386Z,4.28
2018-06-30T07:28:35.802Z,1.85
2018-06-30T07:31:07.618Z,2.33
2018-06-30T07:43:02.068Z,4.25
2018-06-30T07:45:32.286Z,2.90
2018-06-30T07:48:07.429Z,4.20
2018-06-30T07:50:38.198Z,2.72
2018-06-30T07:53:14.390Z,1.60
2018-06-30T07:55:45.149Z,2.37
2018-06-30T07:58:21.097Z,3.05
2018-06-30T08:01:05.045Z,1.82
2018-06-30T08:03:49.222Z,1.60
2018-06-30T08:06:34.549Z,1.75
2018-06-30T08:09:16.057Z,3.15
2018-06-30T08:11:56.881Z,2.30
2018-06-30T08:14:29.092Z,0.95
2018-06-30T08:16:59.501Z,1.00
2018-06-30T08:19:35.106Z,0.70
2018-06-30T08:22:26.863Z,4.00
2018-06-30T08:24:59.818Z,0.78
2018-06-30T08:27:30.376Z,1.57
2018-06-30T08:30:02.829Z,2.22
2018-06-30T08:33:05.301Z,0.70
2018-06-30T08:39:21.823Z,0.98
2018-06-30T08:42:56.417Z,0.93
2018-06-30T08:45:42.844Z,0.42
2018-06-30T08:48:15.099Z,0.30
2018-06-30T08:51:05.705Z,4.15
2018-06-30T08:54:18.712Z,2.30
2018-06-30T09:03:22.288Z,1.22
2018-06-30T09:05:57.674Z,1.67
2018-06-30T09:08:35.408Z,0.33
2018-06-30T09:11:05.758Z,2.27
2018-06-30T09:13:38.958Z,1.98
2018-06-30T09:16:11.264Z,0.72
2018-06-30T09:18:45.818Z,1.75
2018-06-30T09:21:19.293Z,1.32
2018-06-30T09:24:22.653Z,2.45
2018-06-30T09:30:13.732Z,0.60
2018-06-30T09:32:57.048Z,1.50
2018-06-30T09:35:43.324Z,0.55
2018-06-30T09:38:18.556Z,0.30
2018-06-30T09:40:50.733Z,2.70
2018-06-30T09:45:18.806Z,0.30
2018-06-30T09:48:10.695Z,0.45
2018-06-30T09:50:58.957Z,3.70
2018-06-30T09:53:32.482Z,1.10
2018-06-30T09:56:10.453Z,1.70
2018-06-30T10:02:33.919Z,2.40
2018-06-30T10:05:23.424Z,0.50
2018-06-30T10:30:51.500Z,0.68
2018-06-30T10:33:49.904Z,1.02
2018-06-30T10:39:48.743Z,0.40
2018-06-30T10:42:57.119Z,2.08
2018-06-30T11:08:32.324Z,1.32
2018-06-30T11:16:50.285Z,1.55
2018-06-30T11:38:00.026Z,0.40
2018-06-30T11:40:38.895Z,1.60
2018-06-30T11:52:58.760Z,1.35
2018-06-30T11:55:49.260Z,2.65
2018-06-30T12:01:36.354Z,0.68
2018-06-30T12:04:27.709Z,0.82
2018-06-30T12:15:59.220Z,0.57
2018-06-30T12:18:54.045Z,2.50
2018-06-30T12:22:03.374Z,1.52
2018-06-30T12:34:02.672Z,1.47
2018-06-30T12:42:13.433Z,4.62
2018-06-30T12:48:13.263Z,2.05
2018-06-30T13:21:57.640Z,3.05
2018-06-30T13:24:59.962Z,0.20
2018-06-30T13:28:58.411Z,1.22
2018-06-30T13:35:32.713Z,1.00
2018-06-30T13:38:37.776Z,2.77
2018-06-30T14:24:09.925Z,1.27
2018-06-30T14:42:29.516Z,1.47
2018-06-30T14:48:20.625Z,1.65
2018-06-30T14:51:08.488Z,0.98
2018-06-30T14:53:46.080Z,2.83
2018-06-30T15:09:43.076Z,2.20
2018-06-30T15:15:52.713Z,1.45
2018-06-30T15:18:33.020Z,0.60
2018-06-30T15:21:14.612Z,0.40
2018-06-30T15:24:18.604Z,0.40
2018-06-30T15:32:01.644Z,0.98
2018-06-30T15:42:06.824Z,0.50
2018-06-30T15:44:42.342Z,2.60
2018-06-30T15:47:13.834Z,0.90
2018-06-30T15:58:32.623Z,1.10
2018-06-30T16:01:06.411Z,2.02
2018-06-30T16:04:10.015Z,2.58
2018-06-30T16:07:09.420Z,2.87
2018-06-30T16:13:35.823Z,1.07
2018-06-30T16:16:23.357Z,3.10
2018-06-30T16:18:54.005Z,0.82
2018-06-30T16:21:27.516Z,0.70
2018-06-30T16:24:19.880Z,1.20
2018-06-30T17:11:46.968Z,1.10
2018-06-30T17:38:29.344Z,1.57
2018-06-30T17:44:44.978Z,1.85
2018-06-30T17:47:24.521Z,0.80
2018-06-30T17:59:37.300Z,2.15
2018-06-30T18:02:18.499Z,2.55
2018-06-30T18:05:03.716Z,1.60
2018-06-30T18:08:10.311Z,2.08
2018-06-30T18:10:53.639Z,1.60
2018-06-30T18:13:32.151Z,1.10
2018-06-30T18:16:23.321Z,2.02
2018-06-30T18:19:18.653Z,1.20
2018-06-30T18:21:54.120Z,1.77
2018-06-30T18:25:03.102Z,1.20
2018-06-30T18:28:44.503Z,2.85
2018-06-30T18:31:32.210Z,1.27
2018-06-30T18:34:20.290Z,0.82
2018-06-30T18:51:29.473Z,1.62
2018-06-30T18:54:05.939Z,2.17
2018-06-30T18:56:44.102Z,1.17
2018-06-30T18:59:58.174Z,2.65
2018-06-30T19:03:34.049Z,1.98
2018-06-30T19:09:25.747Z,1.17
2018-06-30T19:15:05.737Z,1.65
2018-06-30T19:20:44.252Z,1.25
2018-06-30T19:23:24.643Z,1.67
2018-06-30T19:26:01.362Z,1.67
2018-06-30T19:28:51.237Z,2.12
2018-06-30T19:31:35.553Z,2.58
2018-06-30T19:34:11.597Z,1.55
2018-06-30T19:36:49.195Z,2.05
2018-06-30T19:39:32.292Z,2.45
2018-06-30T19:42:27.461Z,2.60
2018-06-30T19:50:33.025Z,2.15
2018-06-30T19:53:07.481Z,2.52
2018-06-30T19:55:40.303Z,1.20
2018-06-30T19:58:18.093Z,0.85
2018-06-30T20:01:05.247Z,0.93
2018-06-30T20:23:16.766Z,2.75
2018-06-30T20:32:16.262Z,1.87
2018-06-30T20:42:17.432Z,2.37
2018-06-30T20:51:47.353Z,1.35
2018-06-30T20:54:28.957Z,2.72
2018-06-30T20:57:32.530Z,2.45
2018-06-30T21:00:39.392Z,3.70
2018-06-30T21:03:58.300Z,2.70
2018-06-30T21:09:41.261Z,2.33
2018-06-30T21:16:13.974Z,1.32
2018-06-30T21:19:19.370Z,2.90
2018-06-30T21:26:22.498Z,1.82
2018-06-30T21:29:16.765Z,1.75
2018-06-30T21:31:53.561Z,3.25
2018-06-30T21:34:28.708Z,1.65
2018-06-30T21:37:01.695Z,1.67
2018-06-30T21:39:34.263Z,1.47
2018-06-30T21:42:09.771Z,2.42
2018-06-30T21:44:50.654Z,1.85
2018-06-30T21:47:30.530Z,1.45
2018-06-30T21:50:12.958Z,1.60
2018-06-30T21:52:46.007Z,2.02
2018-06-30T21:55:21.065Z,3.85
2018-06-30T21:57:55.940Z,5.80
2018-06-30T22:00:59.330Z,6.30
2018-06-30T22:03:41.096Z,3.22
2018-06-30T22:06:14.458Z,4.30
2018-06-30T22:08:45.624Z,3.40
2018-06-30T22:11:17.369Z,3.30
2018-06-30T22:14:03.986Z,5.47
2018-06-30T22:16:38.562Z,4.25
2018-06-30T22:19:10.055Z,5.85
2018-06-30T22:21:44.416Z,4.30
2018-06-30T22:24:16.407Z,5.90
2018-06-30T22:26:51.448Z,3.45
2018-06-30T22:29:24.332Z,3.25
2018-06-30T22:32:11.662Z,5.62
2018-06-30T22:34:45.501Z,3.15
2018-06-30T22:37:20.899Z,2.90
2018-06-30T22:40:19.728Z,3.17
2018-06-30T22:42:51.988Z,3.83
2018-06-30T22:45:32.821Z,3.33
2018-06-30T22:48:55.713Z,3.90
2018-06-30T22:51:50.676Z,3.15
2018-06-30T22:54:24.345Z,2.75
2018-06-30T22:57:07.359Z,2.70
2018-06-30T22:59:39.331Z,4.10
2018-06-30T23:02:13.149Z,2.52
2018-06-30T23:04:49.061Z,2.80
2018-06-30T23:07:21.588Z,3.02
2018-06-30T23:09:54.349Z,2.85
2018-06-30T23:12:27.519Z,2.80
2018-06-30T23:15:01.357Z,2.80
2018-06-30T23:17:33.751Z,2.98
2018-06-30T23:20:06.154Z,4.08
2018-06-30T23:23:02.767Z,3.77
2018-06-30T23:25:34.731Z,3.55
2018-06-30T23:28:09.814Z,3.35
2018-06-30T23:30:40.735Z,3.20
2018-06-30T23:33:11.496Z,3.42
2018-06-30T23:35:43.639Z,2.60
2018-06-30T23:38:17.549Z,2.98
2018-06-30T23:40:49.121Z,3.65
2018-06-30T23:43:23.903Z,3.10
2018-06-30T23:45:55.798Z,2.15
2018-06-30T23:48:27.284Z,2.45
2018-06-30T23:50:59.151Z,2.25
2018-06-30T23:53:29.528Z,1.87
2018-06-30T23:56:00.574Z,3.25
2018-06-30T23:58:34.186Z,1.90
